createdAt,value
2023-03-25T00:02:40.480Z,100.00
2023-03-25T00:05:42.805Z,100.00
2023-03-25T00:08:46.359Z,100.00
2023-03-25T00:11:50.038Z,100.00
2023-03-25T00:14:52.083Z,100.00
2023-03-25T00:17:55.778Z,100.00
2023-03-25T00:20:57.618Z,100.00
2023-03-25T00:24:00.498Z,100.00
2023-03-25T00:27:03.060Z,100.00
2023-03-25T00:30:08.152Z,100.00
2023-03-25T00:33:11.501Z,100.00
2023-03-25T00:36:13.999Z,100.00
2023-03-25T00:39:16.337Z,100.00
2023-03-25T00:42:18.667Z,100.00
2023-03-25T00:45:22.491Z,100.00
2023-03-25T00:48:25.744Z,100.00
2023-03-25T00:51:29.771Z,100.00
2023-03-25T00:54:33.506Z,100.00
2023-03-25T00:57:35.660Z,100.00
2023-03-25T01:00:37.873Z,100.00
2023-03-25T01:03:44.176Z,100.00
2023-03-25T01:06:46.261Z,100.00
2023-03-25T01:09:48.651Z,100.00
2023-03-25T01:12:50.575Z,100.00
2023-03-25T01:15:53.446Z,100.00
2023-03-25T01:18:57.382Z,100.00
2023-03-25T01:21:59.891Z,100.00
2023-03-25T01:25:02.098Z,100.00
2023-03-25T01:28:04.775Z,100.00
2023-03-25T01:31:09.975Z,100.00
2023-03-25T01:34:14.547Z,100.00
2023-03-25T01:37:16.572Z,100.00
2023-03-25T01:40:21.140Z,100.00
2023-03-25T01:43:24.534Z,100.00
2023-03-25T01:46:26.463Z,100.00
2023-03-25T01:49:33.733Z,100.00
2023-03-25T01:52:35.693Z,100.00
2023-03-25T01:55:39.748Z,100.00
2023-03-25T01:58:44.308Z,100.00
2023-03-25T02:01:47.169Z,100.00
2023-03-25T02:04:57.720Z,100.00
2023-03-25T02:08:02.306Z,100.00
2023-03-25T02:11:05.466Z,100.00
2023-03-25T02:14:10.992Z,100.00
2023-03-25T02:17:24.024Z,100.00
2023-03-25T02:21:06.972Z,100.00
2023-03-25T02:24:34.763Z,100.00
2023-03-25T02:27:57.246Z,100.00
2023-03-25T02:31:28.072Z,100.00
2023-03-25T02:35:01.648Z,100.00
2023-03-25T02:38:22.006Z,100.00
2023-03-25T02:41:30.542Z,100.00
2023-03-25T02:44:37.799Z,100.00
2023-03-25T02:47:46.020Z,100.00
2023-03-25T02:50:53.814Z,100.00
2023-03-25T02:54:00.860Z,100.00
2023-03-25T02:57:03.964Z,100.00
2023-03-25T03:00:08.852Z,100.00
2023-03-25T03:03:10.764Z,100.00
2023-03-25T03:06:17.677Z,100.00
2023-03-25T03:09:32.262Z,100.00
2023-03-25T03:12:45.773Z,100.00
2023-03-25T03:15:56.781Z,100.00
2023-03-25T03:19:15.166Z,100.00
2023-03-25T03:22:32.411Z,100.00
2023-03-25T03:25:43.105Z,100.00
2023-03-25T03:28:49.275Z,100.00
2023-03-25T03:32:05.864Z,100.00
2023-03-25T03:35:13.531Z,100.00
2023-03-25T03:38:17.462Z,100.00
2023-03-25T03:41:24.528Z,100.00
2023-03-25T03:44:32.206Z,100.00
2023-03-25T03:47:40.528Z,100.00
2023-03-25T03:50:47.758Z,100.00
2023-03-25T03:53:55.518Z,100.00
2023-03-25T03:57:03.255Z,100.00
2023-03-25T04:00:12.376Z,100.00
2023-03-25T04:03:15.815Z,100.00
2023-03-25T04:06:26.708Z,100.00
2023-03-25T04:09:35.104Z,100.00
2023-03-25T04:12:42.620Z,100.00
2023-03-25T04:15:44.688Z,100.00
2023-03-25T04:18:49.879Z,100.00
2023-03-25T04:21:51.771Z,100.00
2023-03-25T04:24:53.972Z,100.00
2023-03-25T04:27:57.318Z,100.00
2023-03-25T04:31:01.372Z,100.00
2023-03-25T04:34:03.851Z,100.00
2023-03-25T04:37:05.906Z,100.00
2023-03-25T04:40:09.793Z,100.00
2023-03-25T04:43:13.361Z,100.00
2023-03-25T04:46:17.483Z,100.00
2023-03-25T04:49:22.218Z,100.00
2023-03-25T04:52:24.714Z,100.00
2023-03-25T04:55:28.022Z,100.00
2023-03-25T04:58:31.368Z,100.00
2023-03-25T05:01:36.146Z,100.00
2023-03-25T05:04:39.631Z,100.00
2023-03-25T05:07:43.457Z,100.00
2023-03-25T05:10:45.687Z,100.00
2023-03-25T05:13:49.387Z,100.00
2023-03-25T05:16:51.760Z,100.00
2023-03-25T05:19:54.310Z,100.00
2023-03-25T05:22:56.598Z,100.00
2023-03-25T05:25:58.823Z,100.00
2023-03-25T05:29:03.906Z,100.00
2023-03-25T05:32:06.369Z,100.00
2023-03-25T05:35:09.164Z,100.00
2023-03-25T05:38:12.254Z,100.00
2023-03-25T05:41:15.397Z,100.00
2023-03-25T05:44:18.888Z,100.00
2023-03-25T05:47:22.237Z,100.00
2023-03-25T05:50:24.843Z,100.00
2023-03-25T05:53:26.699Z,100.00
2023-03-25T05:56:29.150Z,100.00
2023-03-25T05:59:33.019Z,100.00
2023-03-25T06:02:35.743Z,100.00
2023-03-25T06:05:39.267Z,100.00
2023-03-25T06:08:41.323Z,100.00
2023-03-25T06:11:43.685Z,100.00
2023-03-25T06:14:47.498Z,100.00
2023-03-25T06:17:49.751Z,100.00
2023-03-25T06:20:52.403Z,100.00
2023-03-25T06:23:54.975Z,100.00
2023-03-25T06:26:57.009Z,100.00
2023-03-25T06:30:01.234Z,100.00
2023-03-25T06:33:03.485Z,100.00
2023-03-25T06:36:06.924Z,100.00
2023-03-25T06:39:08.814Z,100.00
2023-03-25T06:42:11.669Z,100.00
2023-03-25T06:45:15.475Z,100.00
2023-03-25T06:48:18.101Z,100.00
2023-03-25T06:51:25.789Z,100.00
2023-03-25T06:54:30.885Z,100.00
2023-03-25T06:57:38.938Z,100.00
2023-03-25T07:00:44.510Z,100.00
2023-03-25T07:03:46.621Z,100.00
2023-03-25T07:06:48.850Z,100.00
2023-03-25T07:09:51.830Z,100.00
2023-03-25T07:12:53.972Z,100.00
2023-03-25T07:15:57.991Z,100.00
2023-03-25T07:19:00.054Z,100.00
2023-03-25T07:22:01.923Z,100.00
2023-03-25T07:25:04.397Z,100.00
2023-03-25T07:28:06.772Z,100.00
2023-03-25T07:31:12.639Z,100.00
2023-03-25T07:34:15.033Z,100.00
2023-03-25T07:37:16.814Z,100.00
2023-03-25T07:40:19.863Z,100.00
2023-03-25T07:43:23.113Z,100.00
2023-03-25T07:46:26.880Z,100.00
2023-03-25T07:49:28.767Z,100.00
2023-03-25T07:52:30.622Z,100.00
2023-03-25T07:55:32.741Z,100.00
2023-03-25T07:58:36.076Z,100.00
2023-03-25T08:01:39.321Z,100.00
2023-03-25T08:04:41.457Z,100.00
2023-03-25T08:07:43.416Z,100.00
2023-03-25T08:10:46.125Z,100.00
2023-03-25T08:13:48.312Z,100.00
2023-03-25T08:16:51.954Z,100.00
2023-03-25T08:19:54.023Z,100.00
2023-03-25T08:22:55.848Z,100.00
2023-03-25T08:25:57.639Z,100.00
2023-03-25T08:29:02.077Z,100.00
2023-03-25T08:32:05.671Z,100.00
2023-03-25T08:35:08.487Z,100.00
2023-03-25T08:38:10.306Z,100.00
2023-03-25T08:41:12.646Z,100.00
2023-03-25T08:44:17.178Z,100.00
2023-03-25T08:47:20.673Z,100.00
2023-03-25T08:50:22.456Z,100.00
2023-03-25T08:53:27.867Z,100.00
2023-03-25T08:56:30.092Z,100.00
2023-03-25T08:59:33.548Z,100.00
2023-03-25T09:02:36.796Z,100.00
2023-03-25T09:05:38.970Z,100.00
2023-03-25T09:08:41.066Z,94.01
2023-03-25T09:11:43.637Z,90.81
2023-03-25T09:14:45.614Z,98.06
2023-03-25T09:17:50.204Z,92.39
2023-03-25T09:20:52.607Z,96.21
2023-03-25T09:23:54.557Z,96.09
2023-03-25T09:26:58.971Z,97.10
2023-03-25T09:30:01.363Z,88.12
2023-03-25T09:33:04.661Z,96.47
2023-03-25T09:36:07.610Z,83.62
2023-03-25T09:39:11.180Z,85.62
2023-03-25T09:42:30.756Z,93.81
2023-03-25T09:45:36.984Z,81.91
2023-03-25T09:48:42.440Z,79.12
2023-03-25T09:51:47.979Z,78.58
2023-03-25T09:54:54.538Z,76.46
2023-03-25T09:58:05.324Z,80.00
2023-03-25T10:01:19.405Z,79.98
2023-03-25T10:05:07.585Z,85.63
2023-03-25T10:08:21.036Z,77.99
2023-03-25T10:11:32.963Z,77.85
2023-03-25T10:14:42.545Z,77.75
2023-03-25T10:18:01.659Z,78.98
2023-03-25T10:21:14.593Z,76.62
2023-03-25T10:24:22.799Z,76.04
2023-03-25T10:27:33.787Z,80.00
2023-03-25T10:30:41.415Z,75.59
2023-03-25T10:33:49.257Z,81.85
2023-03-25T10:36:54.544Z,80.10
2023-03-25T10:40:00.371Z,74.80
2023-03-25T10:43:14.941Z,78.89
2023-03-25T10:46:24.871Z,73.87
2023-03-25T10:49:30.434Z,78.77
2023-03-25T10:52:33.988Z,79.58
2023-03-25T10:55:39.205Z,80.22
2023-03-25T10:58:43.694Z,80.94
2023-03-25T11:01:47.060Z,82.21
2023-03-25T11:04:54.347Z,79.78
2023-03-25T11:07:58.714Z,80.33
2023-03-25T11:11:05.266Z,84.02
2023-03-25T11:14:08.386Z,74.07
2023-03-25T11:17:17.835Z,77.35
2023-03-25T11:20:26.287Z,79.96
2023-03-25T11:23:32.999Z,73.99
2023-03-25T11:26:40.410Z,77.87
2023-03-25T11:29:42.745Z,75.15
2023-03-25T11:32:50.579Z,76.57
2023-03-25T11:35:54.183Z,76.94
2023-03-25T11:39:01.444Z,76.32
2023-03-25T11:42:16.757Z,78.92
2023-03-25T11:45:26.557Z,76.96
2023-03-25T11:48:36.239Z,79.23
2023-03-25T11:51:38.250Z,75.47
2023-03-25T11:54:41.457Z,78.51
2023-03-25T11:57:51.682Z,76.22
2023-03-25T12:01:01.624Z,72.46
2023-03-25T12:04:14.921Z,74.81
2023-03-25T12:07:19.889Z,71.56
2023-03-25T12:10:35.893Z,69.78
2023-03-25T12:14:02.639Z,68.91
2023-03-25T12:17:11.809Z,66.42
2023-03-25T12:20:22.969Z,64.90
2023-03-25T12:23:39.702Z,67.90
2023-03-25T12:26:50.548Z,66.30
2023-03-25T12:30:04.427Z,65.28
2023-03-25T12:33:19.254Z,65.54
2023-03-25T12:36:37.271Z,64.43
2023-03-25T12:39:52.374Z,65.34
2023-03-25T12:43:04.254Z,67.09
2023-03-25T12:46:20.223Z,64.67
2023-03-25T12:49:50.469Z,68.37
2023-03-25T12:53:00.164Z,66.87
2023-03-25T12:56:16.410Z,64.26
2023-03-25T12:59:38.510Z,66.07
2023-03-25T13:03:23.580Z,64.86
2023-03-25T13:06:35.160Z,65.09
2023-03-25T13:09:48.306Z,65.50
2023-03-25T13:12:53.588Z,64.41
2023-03-25T13:16:02.943Z,66.08
2023-03-25T13:19:11.165Z,65.45
2023-03-25T13:22:19.911Z,66.23
2023-03-25T13:25:27.974Z,66.43
2023-03-25T13:28:36.105Z,67.32
2023-03-25T13:31:42.958Z,66.54
2023-03-25T13:34:51.301Z,66.17
2023-03-25T13:38:00.056Z,65.36
2023-03-25T13:41:11.656Z,64.77
2023-03-25T13:44:20.275Z,64.35
2023-03-25T13:47:30.329Z,66.72
2023-03-25T13:50:33.797Z,63.21
2023-03-25T13:53:45.273Z,64.44
2023-03-25T13:57:23.433Z,67.75
2023-03-25T14:00:56.201Z,60.91
2023-03-25T14:04:52.025Z,60.80
2023-03-25T14:08:17.505Z,59.23
2023-03-25T14:11:24.601Z,58.32
2023-03-25T14:14:33.071Z,60.02
2023-03-25T14:17:36.822Z,58.74
2023-03-25T14:20:41.807Z,61.27
2023-03-25T14:23:44.673Z,62.18
2023-03-25T14:26:50.620Z,61.53
2023-03-25T14:29:56.372Z,62.70
2023-03-25T14:32:58.565Z,65.27
2023-03-25T14:36:00.526Z,64.46
2023-03-25T14:39:02.683Z,64.10
2023-03-25T14:42:12.522Z,63.39
2023-03-25T14:45:52.607Z,64.16
2023-03-25T14:49:19.067Z,67.03
2023-03-25T14:52:28.712Z,67.79
2023-03-25T14:55:32.754Z,64.95
2023-03-25T14:58:38.824Z,66.68
2023-03-25T15:01:43.040Z,65.83
2023-03-25T15:04:46.634Z,71.80
2023-03-25T15:07:51.282Z,66.10
2023-03-25T15:11:06.111Z,67.77
2023-03-25T15:14:13.772Z,63.47
2023-03-25T15:17:41.854Z,62.80
2023-03-25T15:20:44.380Z,64.68
2023-03-25T15:23:50.029Z,64.89
2023-03-25T15:26:54.317Z,65.12
2023-03-25T15:30:08.436Z,66.96
2023-03-25T15:33:23.732Z,68.36
2023-03-25T15:36:45.338Z,67.49
2023-03-25T15:40:02.590Z,70.11
2023-03-25T15:43:50.204Z,66.94
2023-03-25T15:47:23.688Z,67.21
2023-03-25T15:50:42.900Z,66.46
2023-03-25T15:54:04.850Z,66.89
2023-03-25T15:57:16.915Z,67.66
2023-03-25T16:00:26.694Z,68.89
2023-03-25T16:03:42.879Z,68.42
2023-03-25T16:06:48.540Z,71.11
2023-03-25T16:09:52.057Z,70.16
2023-03-25T16:12:54.533Z,71.90
2023-03-25T16:15:58.874Z,69.94
2023-03-25T16:19:04.757Z,70.70
2023-03-25T16:22:18.017Z,71.26
2023-03-25T16:25:25.108Z,71.88
2023-03-25T16:28:29.293Z,72.17
2023-03-25T16:31:34.986Z,73.00
2023-03-25T16:34:41.059Z,74.57
2023-03-25T16:37:44.796Z,73.09
2023-03-25T16:40:47.392Z,74.29
2023-03-25T16:43:49.729Z,75.16
2023-03-25T16:46:53.128Z,74.87
2023-03-25T16:50:00.376Z,74.90
2023-03-25T16:53:02.892Z,75.54
2023-03-25T16:56:22.425Z,75.84
2023-03-25T16:59:28.064Z,75.84
2023-03-25T17:02:39.398Z,76.19
2023-03-25T17:05:55.706Z,76.14
2023-03-25T17:09:00.157Z,76.39
2023-03-25T17:12:08.152Z,76.67
2023-03-25T17:15:16.410Z,76.49
2023-03-25T17:18:19.855Z,76.21
2023-03-25T17:21:27.781Z,76.52
2023-03-25T17:24:38.454Z,76.85
2023-03-25T17:27:42.569Z,77.97
2023-03-25T17:30:46.721Z,75.91
2023-03-25T17:33:51.922Z,78.96
2023-03-25T17:37:00.138Z,81.14
2023-03-25T17:40:08.391Z,90.09
2023-03-25T17:43:20.405Z,95.62
2023-03-25T17:46:26.092Z,97.14
2023-03-25T17:49:28.573Z,97.66
2023-03-25T17:52:36.955Z,100.00
2023-03-25T17:55:39.410Z,100.00
2023-03-25T17:58:41.199Z,100.00
2023-03-25T18:01:43.398Z,100.00
2023-03-25T18:04:45.384Z,100.00
2023-03-25T18:07:49.958Z,100.00
2023-03-25T18:10:53.757Z,100.00
2023-03-25T18:13:56.440Z,100.00
2023-03-25T18:16:58.784Z,100.00
2023-03-25T18:20:13.447Z,100.00
2023-03-25T18:23:18.136Z,100.00
2023-03-25T18:26:21.382Z,100.00
2023-03-25T18:29:26.901Z,100.00
2023-03-25T18:32:29.421Z,100.00
2023-03-25T18:35:35.634Z,100.00
2023-03-25T18:38:40.558Z,100.00
2023-03-25T18:41:43.655Z,100.00
2023-03-25T18:44:48.206Z,100.00
2023-03-25T18:47:53.650Z,100.00
2023-03-25T18:50:58.442Z,100.00
2023-03-25T18:54:04.004Z,100.00
2023-03-25T18:57:06.606Z,100.00
2023-03-25T19:00:28.260Z,100.00
2023-03-25T19:03:31.057Z,100.00
2023-03-25T19:06:35.285Z,100.00
2023-03-25T19:09:39.141Z,100.00
2023-03-25T19:12:48.420Z,100.00
2023-03-25T19:15:50.801Z,100.00
2023-03-25T19:18:54.214Z,100.00
2023-03-25T19:21:57.413Z,100.00
2023-03-25T19:25:02.066Z,100.00
2023-03-25T19:28:05.163Z,100.00
2023-03-25T19:31:08.596Z,100.00
2023-03-25T19:34:11.347Z,100.00
2023-03-25T19:37:14.859Z,100.00
2023-03-25T19:40:20.598Z,100.00
2023-03-25T19:43:24.022Z,100.00
2023-03-25T19:46:28.118Z,100.00
2023-03-25T19:49:39.808Z,100.00
2023-03-25T19:52:44.158Z,100.00
2023-03-25T19:55:50.208Z,100.00
2023-03-25T19:58:53.787Z,100.00
2023-03-25T20:01:57.696Z,100.00
2023-03-25T20:05:01.143Z,100.00
2023-03-25T20:08:05.146Z,100.00
2023-03-25T20:11:12.664Z,100.00
2023-03-25T20:14:15.529Z,100.00
2023-03-25T20:17:19.814Z,100.00
2023-03-25T20:20:24.407Z,100.00
2023-03-25T20:23:26.962Z,100.00
2023-03-25T20:26:32.661Z,100.00
2023-03-25T20:29:37.184Z,100.00
2023-03-25T20:32:42.650Z,100.00
2023-03-25T20:35:47.289Z,100.00
2023-03-25T20:38:57.844Z,100.00
2023-03-25T20:42:04.209Z,100.00
2023-03-25T20:45:10.785Z,100.00
2023-03-25T20:48:14.466Z,100.00
2023-03-25T20:51:17.091Z,100.00
2023-03-25T20:54:20.921Z,100.00
2023-03-25T20:57:26.098Z,100.00
2023-03-25T21:00:30.326Z,100.00
2023-03-25T21:03:33.547Z,100.00
2023-03-25T21:06:37.870Z,100.00
2023-03-25T21:09:41.154Z,100.00
2023-03-25T21:12:45.990Z,100.00
2023-03-25T21:15:53.546Z,100.00
2023-03-25T21:18:55.958Z,100.00
2023-03-25T21:21:58.183Z,100.00
2023-03-25T21:25:00.910Z,100.00
2023-03-25T21:28:06.902Z,100.00
2023-03-25T21:31:10.878Z,100.00
2023-03-25T21:34:13.245Z,100.00
2023-03-25T21:37:16.798Z,100.00
2023-03-25T21:40:22.103Z,100.00
2023-03-25T21:43:26.124Z,100.00
2023-03-25T21:46:30.927Z,100.00
2023-03-25T21:49:33.752Z,100.00
2023-03-25T21:52:37.382Z,100.00
2023-03-25T21:55:39.454Z,100.00
2023-03-25T21:58:43.932Z,100.00
2023-03-25T22:01:45.821Z,100.00
2023-03-25T22:04:49.562Z,100.00
2023-03-25T22:07:51.648Z,100.00
2023-03-25T22:11:02.659Z,100.00
2023-03-25T22:14:08.721Z,100.00
2023-03-25T22:17:12.093Z,100.00
2023-03-25T22:20:15.258Z,100.00
2023-03-25T22:23:17.108Z,100.00
2023-03-25T22:26:21.148Z,100.00
2023-03-25T22:29:24.388Z,100.00
2023-03-25T22:32:29.986Z,100.00
2023-03-25T22:35:32.147Z,100.00
2023-03-25T22:38:33.949Z,100.00
2023-03-25T22:41:36.138Z,100.00
2023-03-25T22:44:39.658Z,100.00
2023-03-25T22:47:41.723Z,100.00
2023-03-25T22:50:44.276Z,99.23
2023-03-25T22:53:47.651Z,100.00
2023-03-25T22:56:50.094Z,100.00
2023-03-25T22:59:53.410Z,99.45
2023-03-25T23:02:55.570Z,99.01
2023-03-25T23:05:59.602Z,98.99
2023-03-25T23:09:05.174Z,96.91
2023-03-25T23:12:07.883Z,96.03
2023-03-25T23:15:11.961Z,97.06
2023-03-25T23:18:13.833Z,95.27
2023-03-25T23:21:19.322Z,93.80
2023-03-25T23:24:21.444Z,95.20
2023-03-25T23:27:23.694Z,93.43
2023-03-25T23:30:27.358Z,93.56
2023-03-25T23:33:29.612Z,95.13
2023-03-25T23:36:33.440Z,94.10
2023-03-25T23:39:36.203Z,94.88
2023-03-25T23:42:38.509Z,92.16
2023-03-25T23:45:41.985Z,90.20
2023-03-25T23:48:44.670Z,92.29
2023-03-25T23:51:46.670Z,90.12
2023-03-25T23:54:48.803Z,92.16
2023-03-25T23:57:50.669Z,88.80
